Terminal Aerodrome Forecast
Issued by NWS

Home | Current Version | Previous Version | Text Only | Print | Product List | Glossary On
Versions: 1 2 3 4 5 6 7 8 9 10 11 12 13 14 15 16 17 18 19 20 21 22 23 24 25 26 27 28
000
FTUS45 KBYZ 040526
TAFLVM
TAF
KLVM 040526Z 0406/0506 08011KT P6SM BKN200
     FM040900 VRB04KT P6SM SCT060
     FM042100 13009KT P6SM VCTS SCT060CB
     FM050100 15008KT P6SM SCT060=

USA.gov is the U.S. government's official web portal to all federal, state and local government web resources and services.